Time;durP1;ratioP1;P1;durP2;ratioP2;P2;SDS_P1;SDS_P2;PMS_P1;PMS_P2;Temp;Humidity;BMP_temperature;BMP_pressure;BME280_temperature;BME280_humidity;BME280_pressure;Samples;Min_cycle;Max_cycle;Signal;HPM_P1;HPM_P2
2022/06/06 00:00:57;;;;;;;3.70;1.00;;;19.20;99.90;;;;;;5017497;28;20033;-84
2022/06/06 00:03:23;;;;;;;3.38;1.50;;;19.20;99.90;;;;;;5017435;28;20048;-84
2022/06/06 00:05:49;;;;;;;6.75;1.17;;;19.20;99.90;;;;;;5016593;28;20175;-84
2022/06/06 00:08:17;;;;;;;4.30;1.55;;;19.20;99.90;;;;;;5017082;28;20069;-84
2022/06/06 00:10:45;;;;;;;6.18;1.42;;;19.20;99.90;;;;;;5035216;28;20079;-84
2022/06/06 00:13:13;;;;;;;2.47;1.25;;;19.10;99.90;;;;;;5001091;28;20140;-84
2022/06/06 00:15:39;;;;;;;2.80;1.10;;;19.10;99.90;;;;;;5034888;28;20025;-84
2022/06/06 00:18:05;;;;;;;3.20;1.10;;;19.10;99.90;;;;;;5017065;28;20036;-84
2022/06/06 00:20:31;;;;;;;3.38;1.20;;;19.10;99.90;;;;;;5017087;28;20021;-84
2022/06/06 00:22:58;;;;;;;1.77;1.20;;;19.10;99.90;;;;;;5034564;28;20378;-84
2022/06/06 00:25:24;;;;;;;4.60;1.20;;;19.10;99.90;;;;;;5034664;28;20026;-84
2022/06/06 00:27:49;;;;;;;7.07;1.50;;;19.10;99.90;;;;;;5017129;28;20024;-84
2022/06/06 00:30:15;;;;;;;1.65;1.15;;;19.10;99.90;;;;;;5016840;28;20075;-84
2022/06/06 00:35:26;;;;;;;1.73;1.20;;;19.10;99.90;;;;;;5034606;28;20032;-84
2022/06/06 00:37:51;;;;;;;5.95;1.45;;;19.10;99.90;;;;;;5000459;28;20033;-84
2022/06/06 00:40:21;;;;;;;4.57;1.40;;;19.10;99.90;;;;;;5016693;28;20029;-84
2022/06/06 00:42:50;;;;;;;2.20;1.27;;;19.10;99.90;;;;;;5016664;28;20477;-84
2022/06/06 00:45:26;;;;;;;4.25;1.27;;;19.00;99.90;;;;;;5000692;28;20580;-84
2022/06/06 00:47:54;;;;;;;2.08;1.00;;;19.10;99.90;;;;;;5016593;28;20444;-83
2022/06/06 00:50:28;;;;;;;2.10;1.02;;;19.00;99.90;;;;;;5016325;28;20025;-84
2022/06/06 00:52:55;;;;;;;3.55;1.23;;;19.00;99.90;;;;;;5034279;28;20021;-84
2022/06/06 00:55:25;;;;;;;4.93;1.30;;;19.00;99.90;;;;;;5016375;28;20400;-84
2022/06/06 00:57:58;;;;;;;1.52;1.20;;;19.00;99.90;;;;;;5016329;28;20388;-84
2022/06/06 01:00:25;;;;;;;5.27;1.30;;;19.00;99.90;;;;;;5016428;28;20029;-84
2022/06/06 01:02:54;;;;;;;1.20;0.95;;;19.00;99.90;;;;;;5034081;28;20366;-84
2022/06/06 01:05:21;;;;;;;2.08;1.15;;;19.00;99.90;;;;;;5016075;28;20022;-84
2022/06/06 01:07:49;;;;;;;1.73;1.27;;;19.00;99.90;;;;;;5016395;28;20025;-84
2022/06/06 01:10:15;;;;;;;4.00;1.50;;;19.00;99.90;;;;;;5033905;28;20026;-84
2022/06/06 01:12:43;;;;;;;1.40;1.20;;;19.00;99.90;;;;;;5016376;28;20103;-84
2022/06/06 01:15:12;;;;;;;1.63;1.10;;;19.00;99.90;;;;;;5016019;28;20061;-84
2022/06/06 01:17:50;;;;;;;4.20;1.40;;;19.00;99.90;;;;;;5015104;28;20053;-84
2022/06/06 01:20:34;;;;;;;1.35;1.20;;;19.00;99.90;;;;;;5016058;28;20488;-84
2022/06/06 01:23:37;;;;;;;6.93;1.30;;;18.90;99.90;;;;;;5027313;28;20500;-84
2022/06/06 01:26:23;;;;;;;1.42;1.17;;;18.90;99.90;;;;;;5053536;28;20388;-84
2022/06/06 01:29:00;;;;;;;4.30;1.42;;;18.90;99.90;;;;;;5035766;28;20542;-84
2022/06/06 01:31:43;;;;;;;3.67;1.20;;;18.90;99.90;;;;;;5053677;28;20063;-84
2022/06/06 01:34:12;;;;;;;4.85;1.33;;;18.90;99.90;;;;;;5053149;28;20035;-84
2022/06/06 01:36:39;;;;;;;12.23;1.77;;;18.90;99.90;;;;;;5035737;28;20499;-84
2022/06/06 01:39:09;;;;;;;1.95;1.40;;;18.90;99.90;;;;;;5035648;28;20051;-84
2022/06/06 01:42:13;;;;;;;2.03;1.10;;;18.90;99.90;;;;;;5035546;28;20040;-84
2022/06/06 01:44:45;;;;;;;3.38;1.23;;;18.80;99.90;;;;;;5035454;28;20033;-84
2022/06/06 01:47:15;;;;;;;4.97;1.80;;;18.80;99.90;;;;;;5035842;28;20468;-84
2022/06/06 01:49:41;;;;;;;3.85;1.65;;;18.90;99.90;;;;;;5035587;28;20108;-84
2022/06/06 01:52:10;;;;;;;3.58;1.23;;;18.80;99.90;;;;;;5019352;28;20075;-84
2022/06/06 01:54:36;;;;;;;2.10;1.30;;;18.80;99.90;;;;;;5035440;28;20029;-84
2022/06/06 01:57:05;;;;;;;4.05;1.20;;;18.80;99.90;;;;;;5035468;28;20032;-84
2022/06/06 01:59:31;;;;;;;2.13;1.20;;;18.80;99.90;;;;;;5035424;28;20064;-84
2022/06/06 02:01:57;;;;;;;2.17;1.17;;;18.80;99.90;;;;;;5018946;28;20399;-84
2022/06/06 02:04:22;;;;;;;1.92;1.23;;;18.80;99.90;;;;;;5035496;28;20115;-84
2022/06/06 02:06:48;;;;;;;2.75;1.23;;;18.80;99.90;;;;;;5053298;28;20104;-84
2022/06/06 02:09:14;;;;;;;2.30;1.30;;;18.80;99.90;;;;;;5035375;28;20112;-84
2022/06/06 02:11:40;;;;;;;2.47;1.40;;;18.80;99.90;;;;;;5035210;28;20025;-84
2022/06/06 02:14:07;;;;;;;2.88;1.30;;;18.80;99.90;;;;;;5035213;28;20052;-84
2022/06/06 02:16:33;;;;;;;4.03;1.20;;;18.80;99.90;;;;;;5035231;28;20029;-84
2022/06/06 02:18:59;;;;;;;2.58;1.30;;;18.80;99.90;;;;;;5035761;28;20028;-84
2022/06/06 02:21:26;;;;;;;3.90;1.40;;;18.70;99.90;;;;;;5035244;28;20392;-84
2022/06/06 02:23:52;;;;;;;7.53;1.80;;;18.70;99.90;;;;;;5033897;28;20056;-84
2022/06/06 02:26:18;;;;;;;2.53;1.40;;;18.80;99.90;;;;;;5015308;28;20021;-84
2022/06/06 02:28:43;;;;;;;4.20;1.02;;;18.70;99.90;;;;;;5034625;28;20404;-84
2022/06/06 02:31:10;;;;;;;2.40;1.38;;;18.70;99.90;;;;;;5036918;28;20018;-84
2022/06/06 02:33:36;;;;;;;1.92;1.25;;;18.70;99.90;;;;;;5036887;28;20113;-84
2022/06/06 02:36:03;;;;;;;2.17;1.33;;;18.70;99.90;;;;;;5019122;28;20052;-84
2022/06/06 02:38:30;;;;;;;5.38;1.63;;;18.70;99.90;;;;;;5019268;28;20025;-84
2022/06/06 02:41:07;;;;;;;10.57;1.70;;;18.70;99.90;;;;;;5002869;28;20037;-84
2022/06/06 02:43:43;;;;;;;2.90;1.40;;;18.70;99.90;;;;;;5036959;28;20028;-84
2022/06/06 02:46:10;;;;;;;2.35;1.35;;;18.70;99.90;;;;;;5018778;28;20021;-84
2022/06/06 02:48:37;;;;;;;3.40;1.40;;;18.60;99.90;;;;;;5019134;28;20026;-84
2022/06/06 02:51:04;;;;;;;3.10;1.55;;;18.70;99.90;;;;;;5019012;28;20030;-84
2022/06/06 02:53:31;;;;;;;3.00;1.50;;;18.70;99.90;;;;;;5018946;28;20079;-84
2022/06/06 02:55:58;;;;;;;3.10;1.40;;;18.70;99.90;;;;;;5036712;28;20092;-84
2022/06/06 02:58:25;;;;;;;3.70;1.50;;;18.70;99.90;;;;;;5018940;28;20120;-84
2022/06/06 03:01:04;;;;;;;1.67;1.17;;;18.70;99.90;;;;;;5036491;28;20487;-84
2022/06/06 03:03:31;;;;;;;4.15;1.30;;;18.60;99.90;;;;;;5036352;28;20078;-84
2022/06/06 03:06:07;;;;;;;4.10;1.50;;;18.60;99.90;;;;;;5036487;28;20469;-84
2022/06/06 03:08:51;;;;;;;3.70;1.70;;;18.60;99.90;;;;;;5019394;28;20024;-84
2022/06/06 03:11:35;;;;;;;3.15;1.50;;;18.60;99.90;;;;;;5018624;28;20017;-84
2022/06/06 03:14:20;;;;;;;4.05;1.38;;;18.60;99.90;;;;;;5018641;28;20034;-84
2022/06/06 03:23:33;;;;;;;4.80;1.73;;;18.60;99.90;;;;;;5036006;28;20052;-84
2022/06/06 03:26:29;;;;;;;5.57;1.70;;;18.60;99.90;;;;;;5018412;28;20030;-84
2022/06/06 03:29:29;;;;;;;1.98;1.70;;;18.60;99.90;;;;;;5018402;28;20034;-84
2022/06/06 03:32:04;;;;;;;2.95;1.67;;;18.60;99.90;;;;;;5001212;28;20052;-84
2022/06/06 03:34:39;;;;;;;3.90;1.67;;;18.60;99.90;;;;;;5036159;28;20025;-84
2022/06/06 03:37:16;;;;;;;3.47;1.70;;;18.60;99.90;;;;;;5035900;28;20496;-84
2022/06/06 03:39:54;;;;;;;3.28;1.73;;;18.60;99.90;;;;;;5017127;28;20022;-84
2022/06/06 03:43:04;;;;;;;8.30;2.10;;;18.60;99.90;;;;;;5018037;28;20485;-84
2022/06/06 03:45:46;;;;;;;2.08;1.63;;;18.60;99.90;;;;;;4981081;28;20484;-84
2022/06/06 03:48:39;;;;;;;5.18;1.90;;;18.60;99.90;;;;;;5017550;28;20021;-84
2022/06/06 03:51:28;;;;;;;3.85;1.65;;;18.50;99.90;;;;;;5017904;28;20069;-84
2022/06/06 03:54:12;;;;;;;8.73;1.90;;;18.50;99.90;;;;;;5017760;28;20025;-84
2022/06/06 03:56:56;;;;;;;2.72;1.63;;;18.60;99.90;;;;;;5017751;28;20017;-84
2022/06/06 03:59:23;;;;;;;3.05;1.83;;;18.50;99.90;;;;;;5035280;28;20110;-84
2022/06/06 04:01:52;;;;;;;3.25;1.73;;;18.50;99.90;;;;;;5035414;28;20473;-84
2022/06/06 04:04:20;;;;;;;2.90;1.70;;;18.50;99.90;;;;;;5035263;28;20175;-84
2022/06/06 04:06:46;;;;;;;4.57;1.85;;;18.60;99.90;;;;;;5035351;28;20021;-84
2022/06/06 04:09:12;;;;;;;4.05;1.55;;;18.50;99.90;;;;;;5017694;28;20503;-84
2022/06/06 04:12:19;;;;;;;3.88;1.70;;;18.50;99.90;;;;;;5035119;28;20092;-84
2022/06/06 04:15:16;;;;;;;2.97;1.85;;;18.50;99.90;;;;;;4984646;28;20049;-83
2022/06/06 04:17:57;;;;;;;6.07;1.90;;;18.50;99.90;;;;;;5017177;28;20021;-84
2022/06/06 04:20:53;;;;;;;4.97;1.85;;;18.50;99.90;;;;;;5033071;28;20124;-84
2022/06/06 04:23:41;;;;;;;7.78;1.80;;;18.50;99.90;;;;;;5031062;28;20041;-84
2022/06/06 04:26:26;;;;;;;5.03;1.42;;;18.50;99.90;;;;;;5036674;28;20021;-84
2022/06/06 04:28:57;;;;;;;3.55;1.70;;;18.50;99.90;;;;;;5036822;28;20021;-84
2022/06/06 04:31:46;;;;;;;3.55;1.70;;;18.50;99.90;;;;;;5054540;28;20028;-84
2022/06/06 04:34:32;;;;;;;3.10;1.90;;;18.50;99.90;;;;;;5036583;28;20028;-84
2022/06/06 04:37:09;;;;;;;4.70;1.80;;;18.50;99.90;;;;;;5036615;28;20036;-84
2022/06/06 04:39:50;;;;;;;5.95;1.80;;;18.50;99.90;;;;;;5036564;28;20033;-84
2022/06/06 04:42:50;;;;;;;4.07;1.60;;;18.50;99.90;;;;;;5036850;28;20025;-83
2022/06/06 04:45:24;;;;;;;4.13;1.70;;;18.50;99.90;;;;;;5053023;28;20372;-84
2022/06/06 04:47:54;;;;;;;4.22;1.95;;;18.50;99.90;;;;;;5036602;28;20028;-84
2022/06/06 04:50:21;;;;;;;5.18;1.73;;;18.50;99.90;;;;;;5036351;28;20021;-84
2022/06/06 04:52:52;;;;;;;3.10;1.90;;;18.50;99.90;;;;;;5054231;28;20419;-83
2022/06/06 04:55:20;;;;;;;4.85;1.75;;;18.60;99.90;;;;;;5036456;28;20392;-84
2022/06/06 04:57:51;;;;;;;2.88;1.63;;;18.60;99.90;;;;;;5053996;28;20033;-84
2022/06/06 05:00:17;;;;;;;4.50;1.70;;;18.60;99.90;;;;;;5036027;28;20025;-84
2022/06/06 05:02:43;;;;;;;3.05;1.55;;;18.60;99.90;;;;;;5036137;28;20025;-84
2022/06/06 05:05:09;;;;;;;2.10;1.60;;;18.60;99.90;;;;;;5035997;28;20032;-84
2022/06/06 05:07:38;;;;;;;3.38;1.60;;;18.60;99.90;;;;;;5035975;28;20025;-84
2022/06/06 05:10:07;;;;;;;7.63;2.00;;;18.60;99.90;;;;;;5054008;28;20024;-84
2022/06/06 05:12:51;;;;;;;4.13;1.70;;;18.60;99.90;;;;;;5036610;28;20139;-84
2022/06/06 05:15:23;;;;;;;4.18;1.70;;;18.60;99.90;;;;;;5035946;28;20029;-84
2022/06/06 05:18:09;;;;;;;4.57;1.77;;;18.60;99.90;;;;;;5035935;28;20033;-84
2022/06/06 05:20:53;;;;;;;5.80;1.80;;;18.60;99.90;;;;;;5035785;28;20037;-84
2022/06/06 05:23:31;;;;;;;2.38;1.60;;;18.60;99.90;;;;;;5035569;28;20183;-84
2022/06/06 05:26:11;;;;;;;2.00;1.50;;;18.60;99.90;;;;;;5035797;28;20025;-84
2022/06/06 05:28:49;;;;;;;3.45;1.73;;;18.60;99.90;;;;;;5035923;28;20032;-84
2022/06/06 05:31:43;;;;;;;3.10;1.77;;;18.60;99.90;;;;;;5035641;28;20033;-84
2022/06/06 05:34:26;;;;;;;3.17;1.67;;;18.60;99.90;;;;;;5053529;28;20388;-84
2022/06/06 05:37:15;;;;;;;3.63;1.92;;;18.60;99.90;;;;;;5035579;28;20033;-84
2022/06/06 05:39:43;;;;;;;3.63;1.40;;;18.60;99.90;;;;;;5036244;28;20036;-84
2022/06/06 05:42:22;;;;;;;2.47;1.67;;;18.60;99.90;;;;;;5035537;28;20032;-84
2022/06/06 05:45:00;;;;;;;2.40;1.70;;;18.70;99.90;;;;;;5053248;28;20031;-84
2022/06/06 05:48:24;;;;;;;3.78;1.42;;;18.70;99.90;;;;;;5035275;28;20071;-84
2022/06/06 05:51:11;;;;;;;2.10;1.35;;;18.70;99.90;;;;;;4981909;28;20034;-84
2022/06/06 05:54:00;;;;;;;4.70;1.70;;;18.70;99.90;;;;;;5035306;28;20025;-84
2022/06/06 05:56:51;;;;;;;4.28;1.65;;;18.70;99.90;;;;;;5035253;28;20499;-84
2022/06/06 05:59:58;;;;;;;3.03;1.60;;;18.70;99.90;;;;;;5053368;28;20032;-84
2022/06/06 06:03:01;;;;;;;3.13;1.65;;;18.70;99.90;;;;;;5053228;28;20369;-84
2022/06/06 06:06:11;;;;;;;3.90;1.42;;;18.70;99.90;;;;;;5039216;28;20028;-84
2022/06/06 06:08:50;;;;;;;6.18;2.00;;;18.80;99.90;;;;;;4959994;28;20127;-84
2022/06/06 06:11:18;;;;;;;4.75;2.22;;;18.80;99.90;;;;;;5052516;28;20037;-84
2022/06/06 06:14:11;;;;;;;3.42;1.60;;;18.80;99.90;;;;;;5039180;28;20035;-84
2022/06/06 06:16:48;;;;;;;2.33;1.63;;;18.80;99.90;;;;;;5039132;28;20029;-84
2022/06/06 06:19:22;;;;;;;3.28;1.42;;;18.80;99.90;;;;;;5057223;28;20044;-84
2022/06/06 06:21:54;;;;;;;3.90;1.60;;;18.80;99.90;;;;;;5056905;28;20017;-84
2022/06/06 06:24:28;;;;;;;5.05;1.80;;;18.90;99.90;;;;;;5039005;28;20037;-84
2022/06/06 06:26:57;;;;;;;2.03;1.60;;;18.90;99.90;;;;;;5057222;28;20021;-84
2022/06/06 06:29:24;;;;;;;4.72;1.58;;;18.90;99.90;;;;;;5038933;28;20025;-84
2022/06/06 06:31:55;;;;;;;3.35;1.42;;;18.90;99.90;;;;;;5038937;28;20056;-83
2022/06/06 06:34:49;;;;;;;4.95;1.70;;;18.90;99.90;;;;;;5056707;28;20025;-83
2022/06/06 06:37:45;;;;;;;4.18;1.75;;;18.90;99.90;;;;;;5038666;28;20052;-84
2022/06/06 06:40:36;;;;;;;3.53;1.88;;;18.90;99.90;;;;;;5038527;28;20025;-84
2022/06/06 06:43:10;;;;;;;3.30;1.48;;;18.90;99.90;;;;;;5038679;28;20056;-84
2022/06/06 06:45:51;;;;;;;3.97;1.70;;;19.00;99.90;;;;;;5038365;28;20095;-84
2022/06/06 06:48:30;;;;;;;1.98;1.50;;;19.00;99.90;;;;;;5039590;28;20021;-84
2022/06/06 06:50:56;;;;;;;3.22;1.77;;;19.00;99.90;;;;;;5038606;28;20025;-84
2022/06/06 06:53:45;;;;;;;2.65;1.90;;;19.00;99.90;;;;;;5038388;28;20400;-84
2022/06/06 06:56:36;;;;;;;2.40;1.70;;;19.00;99.90;;;;;;5038400;28;20021;-83
2022/06/06 06:59:08;;;;;;;3.85;1.98;;;19.00;99.90;;;;;;5038430;28;20108;-84
2022/06/06 07:08:32;;;;;;;4.63;1.98;;;19.00;99.90;;;;;;5038432;28;20120;-84
2022/06/06 07:11:17;;;;;;;2.92;1.90;;;19.10;99.90;;;;;;5056389;28;20094;-83
2022/06/06 07:13:50;;;;;;;3.88;1.77;;;19.10;99.90;;;;;;5040361;28;20037;-85
2022/06/06 07:16:24;;;;;;;3.35;1.85;;;19.10;99.90;;;;;;5056129;28;20142;-84
2022/06/06 07:19:02;;;;;;;2.65;1.75;;;19.10;99.90;;;;;;5038134;28;20029;-84
2022/06/06 07:21:32;;;;;;;2.38;1.90;;;19.10;99.90;;;;;;5038611;28;20480;-84
2022/06/06 07:24:01;;;;;;;2.70;1.58;;;19.10;99.90;;;;;;5037403;28;20045;-84
2022/06/06 07:26:26;;;;;;;3.15;1.85;;;19.20;99.90;;;;;;5021680;28;20395;-84
2022/06/06 07:28:52;;;;;;;4.90;1.70;;;19.10;99.90;;;;;;5037871;28;20109;-84
2022/06/06 07:31:51;;;;;;;2.97;1.73;;;19.20;99.90;;;;;;5037898;28;20053;-85
2022/06/06 07:34:41;;;;;;;5.72;1.75;;;19.20;99.90;;;;;;5037778;28;20075;-84
2022/06/06 07:37:28;;;;;;;3.92;1.70;;;19.20;99.90;;;;;;5037836;28;20369;-85
2022/06/06 07:40:12;;;;;;;3.75;2.10;;;19.20;99.90;;;;;;5037613;28;20082;-84
2022/06/06 07:42:48;;;;;;;3.17;2.05;;;19.20;99.90;;;;;;5037675;28;20021;-84
2022/06/06 07:45:35;;;;;;;4.43;1.80;;;19.20;99.90;;;;;;5037410;28;20032;-84
2022/06/06 07:48:25;;;;;;;2.40;2.00;;;19.20;99.90;;;;;;5037477;28;20021;-84
2022/06/06 07:51:19;;;;;;;2.50;1.70;;;19.20;99.90;;;;;;5037439;28;20017;-86
2022/06/06 07:53:58;;;;;;;4.40;1.90;;;19.30;99.90;;;;;;5055374;28;20031;-84
2022/06/06 07:56:51;;;;;;;3.00;1.67;;;19.20;99.90;;;;;;5037416;28;20124;-84
2022/06/06 07:59:53;;;;;;;4.25;1.85;;;19.20;99.90;;;;;;5055163;28;20029;-85
2022/06/06 08:02:38;;;;;;;3.53;2.00;;;19.20;99.90;;;;;;5037382;28;20025;-84
2022/06/06 08:05:44;;;;;;;1.95;1.65;;;19.30;99.90;;;;;;5037154;28;20029;-84
2022/06/06 08:08:20;;;;;;;2.67;1.70;;;19.30;99.90;;;;;;5037345;28;20051;-84
2022/06/06 08:10:47;;;;;;;2.10;1.63;;;19.30;99.90;;;;;;5037261;28;20031;-84
2022/06/06 08:13:31;;;;;;;2.92;1.77;;;19.30;99.90;;;;;;5037032;28;20075;-84
2022/06/06 08:16:17;;;;;;;2.85;1.85;;;19.30;99.90;;;;;;5037870;28;20079;-84
2022/06/06 08:19:20;;;;;;;4.15;1.80;;;19.30;99.90;;;;;;5036910;28;20045;-84
2022/06/06 08:21:49;;;;;;;3.42;1.80;;;19.30;99.90;;;;;;5036677;28;20029;-84
2022/06/06 08:24:39;;;;;;;2.67;1.65;;;19.30;99.90;;;;;;5036543;28;20467;-85
2022/06/06 08:27:09;;;;;;;3.35;2.03;;;19.30;99.90;;;;;;5037115;28;20367;-85
2022/06/06 08:29:38;;;;;;;2.53;1.55;;;19.40;99.90;;;;;;5036724;28;20498;-84
2022/06/06 08:32:05;;;;;;;3.72;1.73;;;19.40;99.90;;;;;;5036683;28;20021;-84
2022/06/06 08:34:35;;;;;;;2.35;1.60;;;19.40;99.90;;;;;;5036645;28;20099;-85
2022/06/06 08:37:37;;;;;;;2.85;1.65;;;19.50;99.90;;;;;;5036240;28;20032;-84
2022/06/06 08:40:33;;;;;;;2.83;1.70;;;19.50;99.90;;;;;;5053555;28;20090;-84
2022/06/06 08:43:10;;;;;;;3.08;1.77;;;19.50;99.90;;;;;;5054231;28;20079;-84
2022/06/06 08:46:01;;;;;;;4.32;1.70;;;19.50;99.90;;;;;;5036105;28;20438;-86
2022/06/06 08:48:43;;;;;;;1.88;1.50;;;19.50;99.90;;;;;;5054235;28;20476;-85
2022/06/06 08:51:41;;;;;;;3.10;1.80;;;19.60;99.90;;;;;;5054122;28;20471;-86
2022/06/06 08:54:21;;;;;;;3.75;1.40;;;19.50;99.90;;;;;;5025729;28;20029;-85
2022/06/06 08:57:06;;;;;;;2.88;1.70;;;19.50;99.90;;;;;;5036401;28;20116;-85
2022/06/06 08:59:47;;;;;;;3.38;1.95;;;19.50;99.90;;;;;;5035994;28;20391;-87
2022/06/06 09:02:50;;;;;;;5.18;1.90;;;19.50;99.90;;;;;;5036275;28;20029;-86
2022/06/06 09:05:58;;;;;;;2.25;1.70;;;19.60;99.90;;;;;;5035961;28;20439;-84
2022/06/06 09:08:29;;;;;;;2.00;1.55;;;19.50;99.90;;;;;;5014508;28;20033;-85
2022/06/06 09:11:13;;;;;;;2.00;1.50;;;19.50;99.90;;;;;;5036110;28;20260;-85
2022/06/06 09:14:01;;;;;;;5.88;1.88;;;19.50;99.90;;;;;;5036315;28;20494;-84
2022/06/06 09:16:54;;;;;;;5.50;1.70;;;19.50;99.90;;;;;;5053592;28;20025;-84
2022/06/06 09:19:38;;;;;;;1.90;1.33;;;19.40;99.90;;;;;;5035642;28;20048;-85
2022/06/06 09:22:25;;;;;;;3.28;1.75;;;19.50;99.90;;;;;;5036760;28;20520;-84
2022/06/06 09:25:22;;;;;;;3.58;1.80;;;19.50;99.90;;;;;;5035600;28;20044;-85
2022/06/06 09:28:11;;;;;;;2.70;1.92;;;19.50;99.90;;;;;;5035728;28;20112;-84
2022/06/06 09:31:10;;;;;;;2.53;1.70;;;19.50;99.90;;;;;;5053386;28;20025;-84
2022/06/06 09:34:03;;;;;;;3.40;1.70;;;19.50;99.90;;;;;;5035453;28;20024;-84
2022/06/06 09:36:53;;;;;;;1.58;1.33;;;19.50;99.90;;;;;;5035473;28;20017;-83
2022/06/06 09:39:19;;;;;;;4.45;1.70;;;19.60;99.90;;;;;;5052555;28;20021;-84
2022/06/06 09:42:07;;;;;;;2.15;1.40;;;19.60;99.90;;;;;;5035480;28;20029;-84
2022/06/06 09:44:35;;;;;;;2.17;1.40;;;19.70;99.90;;;;;;5035326;28;20059;-84
2022/06/06 09:47:54;;;;;;;4.63;1.75;;;19.70;99.90;;;;;;5035362;28;20044;-86
2022/06/06 09:50:57;;;;;;;4.15;1.63;;;19.80;99.90;;;;;;4972680;28;20109;-87
2022/06/06 09:53:31;;;;;;;2.55;1.60;;;19.80;99.90;;;;;;4972533;28;20031;-85
2022/06/06 09:59:24;;;;;;;2.83;1.60;;;19.90;99.90;;;;;;5053098;28;20078;-84
2022/06/06 10:02:23;;;;;;;4.28;1.63;;;19.90;99.90;;;;;;5035278;28;20021;-86
2022/06/06 10:05:03;;;;;;;2.05;1.30;;;19.90;99.90;;;;;;5035171;28;20025;-85
2022/06/06 10:07:53;;;;;;;3.05;1.55;;;19.90;99.90;;;;;;5035491;28;20545;-85
2022/06/06 10:10:52;;;;;;;1.60;1.40;;;19.90;99.90;;;;;;5053075;28;20035;-85
2022/06/06 10:13:40;;;;;;;1.85;1.40;;;20.00;99.90;;;;;;5053068;28;20486;-85
2022/06/06 10:16:29;;;;;;;3.22;1.85;;;20.00;99.90;;;;;;5035145;28;20544;-84
2022/06/06 10:19:07;;;;;;;2.70;1.65;;;20.00;99.90;;;;;;5035105;28;20074;-85
2022/06/06 10:21:47;;;;;;;1.88;1.17;;;19.90;99.90;;;;;;5035027;28;20028;-84
2022/06/06 10:24:55;;;;;;;1.45;1.15;;;19.90;99.90;;;;;;5034872;28;20041;-84
2022/06/06 10:27:55;;;;;;;2.10;1.40;;;19.90;99.90;;;;;;5035071;28;20017;-84
2022/06/06 10:30:27;;;;;;;2.85;1.50;;;19.80;99.90;;;;;;5052052;28;20079;-84
2022/06/06 10:33:38;;;;;;;2.47;1.50;;;19.80;99.90;;;;;;5052942;28;20025;-84
2022/06/06 10:36:12;;;;;;;4.20;1.55;;;19.70;99.90;;;;;;5034903;28;20025;-84
2022/06/06 10:39:02;;;;;;;1.90;1.60;;;19.70;99.90;;;;;;5035004;28;20021;-84
2022/06/06 10:41:46;;;;;;;2.35;1.75;;;19.70;99.90;;;;;;5034898;28;20028;-84
2022/06/06 10:44:34;;;;;;;2.80;1.58;;;19.70;99.90;;;;;;5034877;28;20025;-84
2022/06/06 10:47:21;;;;;;;2.20;1.75;;;19.70;99.90;;;;;;5034833;28;20025;-84
2022/06/06 10:49:58;;;;;;;3.05;1.50;;;19.70;99.90;;;;;;5036447;28;20032;-84
2022/06/06 10:53:03;;;;;;;2.70;1.40;;;19.70;99.90;;;;;;5038565;28;20023;-84
2022/06/06 10:55:47;;;;;;;2.00;1.33;;;19.70;99.90;;;;;;5038522;28;20480;-84
2022/06/06 10:58:44;;;;;;;2.50;1.60;;;19.70;99.90;;;;;;5038445;28;20025;-84
2022/06/06 11:01:34;;;;;;;3.15;1.65;;;19.70;99.90;;;;;;5038361;28;20402;-84
2022/06/06 11:04:21;;;;;;;3.13;1.50;;;19.60;99.90;;;;;;5038261;28;20028;-84
2022/06/06 11:07:22;;;;;;;2.03;1.45;;;19.60;99.90;;;;;;5038364;28;20388;-84
2022/06/06 11:10:06;;;;;;;2.42;1.55;;;19.60;99.90;;;;;;5027610;28;20036;-84
2022/06/06 11:12:53;;;;;;;1.90;1.60;;;19.60;99.90;;;;;;5038852;28;20021;-84
2022/06/06 11:15:18;;;;;;;2.80;1.67;;;19.60;99.90;;;;;;5038115;28;20086;-84
2022/06/06 11:18:05;;;;;;;2.10;1.60;;;19.60;99.90;;;;;;5038127;28;20369;-84
2022/06/06 11:21:03;;;;;;;5.10;1.83;;;19.60;99.90;;;;;;5038058;28;20406;-84
2022/06/06 11:23:38;;;;;;;2.55;1.40;;;19.60;99.90;;;;;;5037714;28;20055;-85
2022/06/06 11:26:37;;;;;;;2.45;1.48;;;19.60;99.90;;;;;;5037985;28;20052;-84
2022/06/06 11:29:28;;;;;;;3.95;1.52;;;19.60;99.90;;;;;;5037866;28;20036;-84
2022/06/06 11:32:20;;;;;;;1.60;1.42;;;19.60;99.90;;;;;;5037949;28;20055;-84
2022/06/06 11:35:21;;;;;;;2.58;1.42;;;19.60;99.90;;;;;;5037743;28;20098;-84
2022/06/06 11:38:01;;;;;;;4.72;1.70;;;19.60;99.90;;;;;;5037638;28;20483;-85
2022/06/06 11:40:35;;;;;;;1.50;1.40;;;19.70;99.90;;;;;;5037685;28;20021;-83
2022/06/06 11:43:37;;;;;;;1.65;1.35;;;19.70;99.90;;;;;;5037673;28;20063;-84
2022/06/06 11:46:15;;;;;;;3.30;1.75;;;19.70;99.90;;;;;;5037473;28;20025;-84
2022/06/06 11:49:08;;;;;;;2.53;1.58;;;19.70;99.90;;;;;;5037605;28;20028;-85
2022/06/06 11:51:56;;;;;;;1.60;1.38;;;19.70;99.90;;;;;;5037446;28;20116;-87
2022/06/06 11:54:40;;;;;;;3.22;1.35;;;19.60;99.90;;;;;;5055370;28;20056;-86
2022/06/06 11:57:18;;;;;;;2.10;1.50;;;19.60;99.90;;;;;;5037399;28;20025;-85
2022/06/06 11:59:59;;;;;;;3.97;1.30;;;19.60;99.90;;;;;;5037332;28;20480;-84
2022/06/06 12:02:45;;;;;;;3.17;1.40;;;19.60;99.90;;;;;;5036438;28;20029;-83
2022/06/06 12:05:28;;;;;;;3.72;1.52;;;19.60;99.90;;;;;;5037238;28;20051;-85
2022/06/06 12:08:22;;;;;;;2.75;1.60;;;19.60;99.90;;;;;;5037236;28;20051;-84
2022/06/06 12:11:10;;;;;;;1.65;1.40;;;19.60;99.90;;;;;;5037233;28;20029;-84
2022/06/06 12:14:05;;;;;;;1.58;1.40;;;19.60;99.90;;;;;;5055185;28;20036;-84
2022/06/06 12:16:55;;;;;;;2.30;1.50;;;19.60;99.90;;;;;;5036928;28;20456;-84
2022/06/06 12:19:47;;;;;;;2.63;1.52;;;19.70;99.90;;;;;;5054752;28;20017;-84
2022/06/06 12:22:36;;;;;;;2.55;1.75;;;19.80;99.90;;;;;;5054630;28;20504;-84
2022/06/06 12:25:17;;;;;;;3.25;1.60;;;19.90;99.90;;;;;;5036667;28;20045;-84
2022/06/06 12:28:25;;;;;;;3.70;1.80;;;19.90;99.90;;;;;;5036738;28;20021;-86
2022/06/06 12:31:06;;;;;;;4.82;1.70;;;20.00;99.90;;;;;;4994318;28;20041;-85
2022/06/06 12:33:49;;;;;;;2.03;1.52;;;20.10;99.90;;;;;;5036592;28;20033;-84
2022/06/06 12:36:26;;;;;;;2.40;1.67;;;20.20;99.90;;;;;;5054737;28;20029;-84
2022/06/06 12:39:27;;;;;;;2.50;1.50;;;20.30;99.90;;;;;;5036582;28;20548;-84
2022/06/06 12:42:08;;;;;;;2.67;1.25;;;20.30;99.90;;;;;;4994874;28;20439;-84
2022/06/06 12:44:33;;;;;;;2.22;1.45;;;20.30;99.90;;;;;;5036503;28;20021;-85
2022/06/06 12:47:37;;;;;;;1.73;1.20;;;20.40;99.90;;;;;;5036482;28;20025;-85
2022/06/06 12:50:36;;;;;;;2.13;1.20;;;20.30;99.90;;;;;;5036342;28;20025;-84
2022/06/06 12:53:26;;;;;;;1.80;1.10;;;20.30;99.90;;;;;;5036366;28;20022;-84
2022/06/06 12:58:40;;;;;;;3.58;1.33;;;20.10;99.90;;;;;;5054363;28;20033;-84
2022/06/06 13:01:40;;;;;;;1.75;1.30;;;20.10;99.90;;;;;;5036109;28;20035;-84
2022/06/06 13:04:22;;;;;;;3.67;1.50;;;20.00;99.90;;;;;;5036045;28;20025;-83
2022/06/06 13:07:07;;;;;;;1.48;1.25;;;19.90;99.90;;;;;;5036101;28;20025;-83
2022/06/06 13:09:35;;;;;;;2.35;1.30;;;19.90;99.90;;;;;;5036036;28;20021;-84
2022/06/06 13:12:15;;;;;;;3.10;1.35;;;19.80;99.90;;;;;;5035825;28;20049;-83
2022/06/06 13:15:04;;;;;;;2.95;1.35;;;19.80;99.90;;;;;;5053748;28;20029;-84
2022/06/06 13:18:05;;;;;;;2.30;1.80;;;19.80;99.90;;;;;;5035860;28;20025;-83
2022/06/06 13:20:50;;;;;;;2.97;1.42;;;19.70;99.90;;;;;;5053976;28;20033;-83
2022/06/06 13:23:40;;;;;;;3.33;1.70;;;19.70;99.90;;;;;;5035551;28;20049;-84
2022/06/06 13:26:24;;;;;;;3.45;1.40;;;19.70;99.90;;;;;;5053590;28;20498;-84
2022/06/06 13:28:53;;;;;;;2.23;1.40;;;19.60;99.90;;;;;;5053526;28;20582;-84
2022/06/06 13:31:33;;;;;;;4.22;1.65;;;19.60;99.90;;;;;;5035557;28;20025;-84
2022/06/06 13:34:18;;;;;;;2.88;1.30;;;19.60;99.90;;;;;;5036469;28;20024;-83
2022/06/06 13:37:00;;;;;;;2.53;1.48;;;19.60;99.90;;;;;;5053487;28;20021;-84
2022/06/06 13:39:53;;;;;;;4.32;1.50;;;19.60;99.90;;;;;;5035545;28;20033;-83
2022/06/06 13:43:03;;;;;;;2.25;1.60;;;19.60;99.90;;;;;;5035541;28;20358;-84
2022/06/06 13:45:53;;;;;;;3.38;1.55;;;19.60;99.90;;;;;;4992606;28;20079;-83
2022/06/06 13:48:40;;;;;;;3.22;1.42;;;19.60;99.90;;;;;;5035412;28;20032;-84
2022/06/06 13:51:44;;;;;;;3.28;1.83;;;19.60;99.90;;;;;;5053206;28;20112;-83
2022/06/06 13:54:36;;;;;;;1.83;1.40;;;19.60;99.90;;;;;;5053174;28;20017;-84
2022/06/06 13:57:25;;;;;;;2.95;1.60;;;19.60;99.90;;;;;;5035345;28;20021;-84
2022/06/06 14:00:06;;;;;;;2.13;1.48;;;19.60;99.90;;;;;;5035281;28;20027;-84
2022/06/06 14:02:37;;;;;;;4.50;1.60;;;19.60;99.90;;;;;;5035293;28;20022;-84
2022/06/06 14:05:13;;;;;;;3.00;1.75;;;19.60;99.90;;;;;;5035259;28;20040;-84
2022/06/06 14:07:44;;;;;;;4.15;1.52;;;19.60;99.90;;;;;;5035232;28;20476;-84
2022/06/06 14:10:12;;;;;;;3.45;1.80;;;19.60;99.90;;;;;;5035492;28;20112;-84
2022/06/06 14:12:59;;;;;;;2.85;1.30;;;19.60;99.90;;;;;;5053019;28;20385;-84
2022/06/06 14:15:27;;;;;;;3.33;1.65;;;19.70;99.90;;;;;;5053251;28;20384;-84
2022/06/06 14:18:09;;;;;;;2.92;1.50;;;19.80;99.90;;;;;;5035181;28;20025;-84
2022/06/06 14:20:41;;;;;;;2.28;1.45;;;19.90;99.90;;;;;;5035171;28;20056;-84